sensor_id;sensor_type;location;lat;lon;timestamp;pressure;altitude;pressure_sealevel;temperature;humidity
36454;BME280;22478;51.740;-1.314;2023-04-10T00:02:21;100129.23;;;7.06;100.00
36454;BME280;22478;51.740;-1.314;2023-04-10T00:04:48;100127.47;;;6.80;100.00
36454;BME280;22478;51.740;-1.314;2023-04-10T00:07:15;100119.39;;;6.28;100.00
36454;BME280;22478;51.740;-1.314;2023-04-10T00:09:42;100115.75;;;6.89;100.00
36454;BME280;22478;51.740;-1.314;2023-04-10T00:12:09;100120.39;;;6.29;100.00
36454;BME280;22478;51.740;-1.314;2023-04-10T00:14:37;100120.58;;;6.13;100.00
36454;BME280;22478;51.740;-1.314;2023-04-10T00:17:05;100118.75;;;5.25;100.00
36454;BME280;22478;51.740;-1.314;2023-04-10T00:19:32;100108.92;;;6.02;100.00
36454;BME280;22478;51.740;-1.314;2023-04-10T00:21:59;100108.26;;;6.14;100.00
36454;BME280;22478;51.740;-1.314;2023-04-10T00:24:27;100107.29;;;6.70;100.00
36454;BME280;22478;51.740;-1.314;2023-04-10T00:26:54;100105.43;;;6.69;100.00
36454;BME280;22478;51.740;-1.314;2023-04-10T00:29:21;100098.95;;;6.36;100.00
36454;BME280;22478;51.740;-1.314;2023-04-10T00:31:48;100096.31;;;6.07;100.00
36454;BME280;22478;51.740;-1.314;2023-04-10T00:34:15;100092.75;;;6.18;100.00
36454;BME280;22478;51.740;-1.314;2023-04-10T00:36:44;100091.00;;;5.80;100.00
36454;BME280;22478;51.740;-1.314;2023-04-10T00:39:12;100096.19;;;6.50;100.00
36454;BME280;22478;51.740;-1.314;2023-04-10T00:41:40;100092.58;;;6.11;100.00
36454;BME280;22478;51.740;-1.314;2023-04-10T00:44:08;100098.58;;;4.96;100.00
36454;BME280;22478;51.740;-1.314;2023-04-10T00:46:36;100094.67;;;5.87;100.00
36454;BME280;22478;51.740;-1.314;2023-04-10T00:49:03;100095.27;;;4.51;100.00
36454;BME280;22478;51.740;-1.314;2023-04-10T00:51:31;100095.18;;;5.38;100.00
36454;BME280;22478;51.740;-1.314;2023-04-10T00:53:59;100090.42;;;6.07;100.00
36454;BME280;22478;51.740;-1.314;2023-04-10T00:56:27;100089.13;;;5.83;100.00
36454;BME280;22478;51.740;-1.314;2023-04-10T00:58:56;100085.65;;;6.72;100.00
36454;BME280;22478;51.740;-1.314;2023-04-10T01:01:23;100083.12;;;6.13;100.00
36454;BME280;22478;51.740;-1.314;2023-04-10T01:03:51;100083.91;;;6.08;100.00
36454;BME280;22478;51.740;-1.314;2023-04-10T01:06:29;100082.27;;;4.48;100.00
36454;BME280;22478;51.740;-1.314;2023-04-10T01:09:08;100075.58;;;5.39;100.00
36454;BME280;22478;51.740;-1.314;2023-04-10T01:11:45;100070.54;;;5.02;100.00
36454;BME280;22478;51.740;-1.314;2023-04-10T01:14:25;100060.76;;;5.81;100.00
36454;BME280;22478;51.740;-1.314;2023-04-10T01:16:59;100047.63;;;6.91;100.00
36454;BME280;22478;51.740;-1.314;2023-04-10T01:19:42;100043.40;;;6.57;100.00
36454;BME280;22478;51.740;-1.314;2023-04-10T01:22:16;100043.51;;;6.56;100.00
36454;BME280;22478;51.740;-1.314;2023-04-10T01:24:54;100042.35;;;5.32;100.00
36454;BME280;22478;51.740;-1.314;2023-04-10T01:27:37;100032.99;;;6.38;100.00
36454;BME280;22478;51.740;-1.314;2023-04-10T01:30:07;100029.73;;;6.47;100.00
36454;BME280;22478;51.740;-1.314;2023-04-10T01:32:39;100023.26;;;3.46;100.00
36454;BME280;22478;51.740;-1.314;2023-04-10T01:35:07;100021.07;;;4.80;100.00
36454;BME280;22478;51.740;-1.314;2023-04-10T01:37:37;100009.52;;;5.97;100.00
36454;BME280;22478;51.740;-1.314;2023-04-10T01:40:10;100006.30;;;6.18;100.00
36454;BME280;22478;51.740;-1.314;2023-04-10T01:42:42;100006.76;;;5.64;100.00
36454;BME280;22478;51.740;-1.314;2023-04-10T01:45:13;100007.41;;;5.65;100.00
36454;BME280;22478;51.740;-1.314;2023-04-10T01:47:44;100009.34;;;5.21;100.00
36454;BME280;22478;51.740;-1.314;2023-04-10T01:50:12;100000.99;;;5.08;100.00
36454;BME280;22478;51.740;-1.314;2023-04-10T01:52:41;99995.73;;;5.55;100.00
36454;BME280;22478;51.740;-1.314;2023-04-10T01:55:09;99990.06;;;4.65;100.00
36454;BME280;22478;51.740;-1.314;2023-04-10T01:57:36;99989.97;;;5.98;100.00
36454;BME280;22478;51.740;-1.314;2023-04-10T02:00:05;99996.87;;;4.03;100.00
36454;BME280;22478;51.740;-1.314;2023-04-10T02:02:33;99991.22;;;5.39;100.00
36454;BME280;22478;51.740;-1.314;2023-04-10T02:05:01;99983.12;;;4.59;100.00
36454;BME280;22478;51.740;-1.314;2023-04-10T02:07:35;99980.16;;;5.77;100.00
36454;BME280;22478;51.740;-1.314;2023-04-10T02:10:10;99976.29;;;5.29;100.00
36454;BME280;22478;51.740;-1.314;2023-04-10T02:12:45;99969.55;;;5.87;100.00
36454;BME280;22478;51.740;-1.314;2023-04-10T02:15:16;99965.50;;;5.25;100.00
36454;BME280;22478;51.740;-1.314;2023-04-10T02:17:45;99965.60;;;4.72;100.00
36454;BME280;22478;51.740;-1.314;2023-04-10T02:20:14;99975.09;;;4.32;100.00
36454;BME280;22478;51.740;-1.314;2023-04-10T02:22:42;99981.95;;;3.92;100.00
36454;BME280;22478;51.740;-1.314;2023-04-10T02:25:10;99973.98;;;5.73;100.00
36454;BME280;22478;51.740;-1.314;2023-04-10T02:27:38;99972.11;;;4.90;100.00
36454;BME280;22478;51.740;-1.314;2023-04-10T02:30:07;99971.23;;;4.86;100.00
36454;BME280;22478;51.740;-1.314;2023-04-10T02:32:34;99960.05;;;4.76;100.00
36454;BME280;22478;51.740;-1.314;2023-04-10T02:35:01;99953.43;;;3.80;100.00
36454;BME280;22478;51.740;-1.314;2023-04-10T02:37:29;99949.27;;;4.87;100.00
36454;BME280;22478;51.740;-1.314;2023-04-10T02:39:56;99951.01;;;5.29;100.00
36454;BME280;22478;51.740;-1.314;2023-04-10T02:42:23;99951.60;;;6.01;100.00
36454;BME280;22478;51.740;-1.314;2023-04-10T02:44:50;99952.17;;;5.06;100.00
36454;BME280;22478;51.740;-1.314;2023-04-10T02:47:18;99941.65;;;5.80;100.00
36454;BME280;22478;51.740;-1.314;2023-04-10T02:49:45;99932.56;;;5.06;100.00
36454;BME280;22478;51.740;-1.314;2023-04-10T02:52:12;99933.80;;;5.50;100.00
36454;BME280;22478;51.740;-1.314;2023-04-10T02:54:40;99922.82;;;5.60;100.00
36454;BME280;22478;51.740;-1.314;2023-04-10T02:57:07;99919.93;;;5.81;100.00
36454;BME280;22478;51.740;-1.314;2023-04-10T02:59:34;99923.68;;;5.71;100.00
36454;BME280;22478;51.740;-1.314;2023-04-10T03:02:01;99922.47;;;4.42;100.00
36454;BME280;22478;51.740;-1.314;2023-04-10T03:04:31;99919.78;;;5.19;100.00
36454;BME280;22478;51.740;-1.314;2023-04-10T03:06:58;99912.87;;;5.79;100.00
36454;BME280;22478;51.740;-1.314;2023-04-10T03:09:25;99912.78;;;5.34;100.00
36454;BME280;22478;51.740;-1.314;2023-04-10T03:11:53;99910.35;;;6.12;100.00
36454;BME280;22478;51.740;-1.314;2023-04-10T03:14:20;99914.32;;;5.10;100.00
36454;BME280;22478;51.740;-1.314;2023-04-10T03:16:47;99913.92;;;5.14;100.00
36454;BME280;22478;51.740;-1.314;2023-04-10T03:19:14;99908.84;;;5.69;100.00
36454;BME280;22478;51.740;-1.314;2023-04-10T03:21:42;99905.43;;;5.89;100.00
36454;BME280;22478;51.740;-1.314;2023-04-10T03:24:09;99905.01;;;5.11;100.00
36454;BME280;22478;51.740;-1.314;2023-04-10T03:26:37;99900.02;;;6.88;100.00
36454;BME280;22478;51.740;-1.314;2023-04-10T03:29:03;99894.74;;;6.48;100.00
36454;BME280;22478;51.740;-1.314;2023-04-10T03:31:31;99890.58;;;5.86;100.00
36454;BME280;22478;51.740;-1.314;2023-04-10T03:33:58;99887.29;;;5.14;100.00
36454;BME280;22478;51.740;-1.314;2023-04-10T03:36:25;99884.94;;;5.09;100.00
36454;BME280;22478;51.740;-1.314;2023-04-10T03:38:52;99882.60;;;5.20;100.00
36454;BME280;22478;51.740;-1.314;2023-04-10T03:41:20;99878.20;;;5.25;100.00
36454;BME280;22478;51.740;-1.314;2023-04-10T03:43:47;99867.22;;;4.96;100.00
36454;BME280;22478;51.740;-1.314;2023-04-10T03:46:14;99866.90;;;5.33;100.00
36454;BME280;22478;51.740;-1.314;2023-04-10T03:48:41;99856.60;;;5.70;100.00
36454;BME280;22478;51.740;-1.314;2023-04-10T03:51:09;99851.51;;;5.31;100.00
36454;BME280;22478;51.740;-1.314;2023-04-10T03:53:36;99853.83;;;5.48;100.00
36454;BME280;22478;51.740;-1.314;2023-04-10T03:56:03;99850.43;;;5.02;100.00
36454;BME280;22478;51.740;-1.314;2023-04-10T03:58:30;99843.47;;;5.20;100.00
36454;BME280;22478;51.740;-1.314;2023-04-10T04:00:57;99836.87;;;5.13;100.00
36454;BME280;22478;51.740;-1.314;2023-04-10T04:03:25;99826.46;;;6.35;100.00
36454;BME280;22478;51.740;-1.314;2023-04-10T04:05:53;99830.97;;;4.78;100.00
36454;BME280;22478;51.740;-1.314;2023-04-10T04:08:20;99824.93;;;4.49;100.00
36454;BME280;22478;51.740;-1.314;2023-04-10T04:10:47;99815.55;;;5.61;100.00
36454;BME280;22478;51.740;-1.314;2023-04-10T04:13:14;99811.09;;;5.92;100.00
36454;BME280;22478;51.740;-1.314;2023-04-10T04:15:42;99807.64;;;5.57;100.00
36454;BME280;22478;51.740;-1.314;2023-04-10T04:18:09;99798.70;;;3.62;100.00
36454;BME280;22478;51.740;-1.314;2023-04-10T04:20:36;99792.54;;;5.22;100.00
36454;BME280;22478;51.740;-1.314;2023-04-10T04:23:04;99781.64;;;5.28;100.00
36454;BME280;22478;51.740;-1.314;2023-04-10T04:25:31;99780.24;;;4.45;100.00
36454;BME280;22478;51.740;-1.314;2023-04-10T04:27:58;99783.48;;;4.19;100.00
36454;BME280;22478;51.740;-1.314;2023-04-10T04:30:25;99774.12;;;6.18;100.00
36454;BME280;22478;51.740;-1.314;2023-04-10T04:32:52;99772.05;;;5.21;100.00
36454;BME280;22478;51.740;-1.314;2023-04-10T04:35:20;99767.51;;;5.55;100.00
36454;BME280;22478;51.740;-1.314;2023-04-10T04:37:47;99770.50;;;4.76;100.00
36454;BME280;22478;51.740;-1.314;2023-04-10T04:40:15;99768.77;;;5.57;100.00
36454;BME280;22478;51.740;-1.314;2023-04-10T04:42:42;99771.27;;;5.06;100.00
36454;BME280;22478;51.740;-1.314;2023-04-10T04:45:10;99760.56;;;4.15;100.00
36454;BME280;22478;51.740;-1.314;2023-04-10T04:47:37;99761.09;;;5.07;100.00
36454;BME280;22478;51.740;-1.314;2023-04-10T04:50:05;99755.77;;;4.30;100.00
36454;BME280;22478;51.740;-1.314;2023-04-10T04:52:32;99749.45;;;4.90;100.00
36454;BME280;22478;51.740;-1.314;2023-04-10T04:54:59;99737.89;;;5.72;100.00
36454;BME280;22478;51.740;-1.314;2023-04-10T04:57:26;99740.61;;;5.82;100.00
36454;BME280;22478;51.740;-1.314;2023-04-10T04:59:53;99736.15;;;6.22;100.00
36454;BME280;22478;51.740;-1.314;2023-04-10T05:02:20;99741.56;;;5.10;100.00
36454;BME280;22478;51.740;-1.314;2023-04-10T05:04:47;99741.43;;;6.17;100.00
36454;BME280;22478;51.740;-1.314;2023-04-10T05:07:15;99728.52;;;5.90;100.00
36454;BME280;22478;51.740;-1.314;2023-04-10T05:09:42;99728.41;;;6.58;100.00
36454;BME280;22478;51.740;-1.314;2023-04-10T05:12:09;99727.01;;;6.13;100.00
36454;BME280;22478;51.740;-1.314;2023-04-10T05:14:37;99726.00;;;6.29;100.00
36454;BME280;22478;51.740;-1.314;2023-04-10T05:17:04;99732.97;;;4.86;100.00
36454;BME280;22478;51.740;-1.314;2023-04-10T05:19:32;99736.95;;;4.05;100.00
36454;BME280;22478;51.740;-1.314;2023-04-10T05:21:59;99725.68;;;5.37;100.00
36454;BME280;22478;51.740;-1.314;2023-04-10T05:24:26;99729.46;;;3.94;100.00
36454;BME280;22478;51.740;-1.314;2023-04-10T05:26:53;99729.81;;;5.22;100.00
36454;BME280;22478;51.740;-1.314;2023-04-10T05:29:20;99729.54;;;4.68;100.00
36454;BME280;22478;51.740;-1.314;2023-04-10T05:31:47;99723.59;;;5.25;100.00
36454;BME280;22478;51.740;-1.314;2023-04-10T05:34:15;99722.37;;;3.78;100.00
36454;BME280;22478;51.740;-1.314;2023-04-10T05:36:42;99727.15;;;5.10;100.00
36454;BME280;22478;51.740;-1.314;2023-04-10T05:39:09;99723.63;;;5.26;100.00
36454;BME280;22478;51.740;-1.314;2023-04-10T05:41:36;99717.05;;;3.90;100.00
36454;BME280;22478;51.740;-1.314;2023-04-10T05:44:03;99715.20;;;5.61;100.00
36454;BME280;22478;51.740;-1.314;2023-04-10T05:46:31;99708.03;;;4.96;100.00
36454;BME280;22478;51.740;-1.314;2023-04-10T05:48:58;99712.10;;;5.25;100.00
36454;BME280;22478;51.740;-1.314;2023-04-10T05:51:25;99712.32;;;4.25;100.00
36454;BME280;22478;51.740;-1.314;2023-04-10T05:53:52;99713.38;;;4.63;100.00
36454;BME280;22478;51.740;-1.314;2023-04-10T05:56:19;99709.60;;;4.74;100.00
36454;BME280;22478;51.740;-1.314;2023-04-10T05:58:47;99716.15;;;3.81;100.00
36454;BME280;22478;51.740;-1.314;2023-04-10T06:01:14;99715.51;;;4.91;100.00
36454;BME280;22478;51.740;-1.314;2023-04-10T06:03:41;99713.40;;;3.00;100.00
36454;BME280;22478;51.740;-1.314;2023-04-10T06:06:08;99710.96;;;4.48;100.00
36454;BME280;22478;51.740;-1.314;2023-04-10T06:08:36;99711.88;;;5.52;100.00
36454;BME280;22478;51.740;-1.314;2023-04-10T06:11:03;99712.19;;;5.20;100.00
36454;BME280;22478;51.740;-1.314;2023-04-10T06:13:31;99708.36;;;4.87;100.00
36454;BME280;22478;51.740;-1.314;2023-04-10T06:15:58;99702.42;;;4.60;100.00
36454;BME280;22478;51.740;-1.314;2023-04-10T06:18:25;99688.68;;;5.68;100.00
36454;BME280;22478;51.740;-1.314;2023-04-10T06:20:53;99690.52;;;4.97;100.00
36454;BME280;22478;51.740;-1.314;2023-04-10T06:23:20;99690.39;;;4.60;100.00
36454;BME280;22478;51.740;-1.314;2023-04-10T06:25:47;99684.88;;;3.73;100.00
36454;BME280;22478;51.740;-1.314;2023-04-10T06:28:13;99678.68;;;4.87;100.00
36454;BME280;22478;51.740;-1.314;2023-04-10T06:30:41;99670.93;;;5.20;100.00
36454;BME280;22478;51.740;-1.314;2023-04-10T06:33:09;99665.24;;;5.86;100.00
36454;BME280;22478;51.740;-1.314;2023-04-10T06:35:37;99669.79;;;5.17;100.00
36454;BME280;22478;51.740;-1.314;2023-04-10T06:38:04;99667.28;;;4.17;100.00
36454;BME280;22478;51.740;-1.314;2023-04-10T06:40:32;99656.10;;;5.02;100.00
36454;BME280;22478;51.740;-1.314;2023-04-10T06:42:59;99649.11;;;4.43;100.00
36454;BME280;22478;51.740;-1.314;2023-04-10T06:45:27;99638.62;;;6.03;100.00
36454;BME280;22478;51.740;-1.314;2023-04-10T06:47:54;99627.96;;;5.50;100.00
36454;BME280;22478;51.740;-1.314;2023-04-10T06:50:21;99626.10;;;5.32;100.00
36454;BME280;22478;51.740;-1.314;2023-04-10T06:52:48;99619.72;;;5.33;100.00
36454;BME280;22478;51.740;-1.314;2023-04-10T06:55:15;99622.35;;;5.12;100.00
36454;BME280;22478;51.740;-1.314;2023-04-10T06:57:42;99617.17;;;5.26;100.00
36454;BME280;22478;51.740;-1.314;2023-04-10T07:00:10;99611.96;;;5.51;100.00
36454;BME280;22478;51.740;-1.314;2023-04-10T07:02:37;99609.14;;;6.03;100.00
36454;BME280;22478;51.740;-1.314;2023-04-10T07:05:05;99612.97;;;5.24;100.00
36454;BME280;22478;51.740;-1.314;2023-04-10T07:07:32;99601.79;;;5.97;100.00
36454;BME280;22478;51.740;-1.314;2023-04-10T07:10:00;99602.85;;;5.74;100.00
36454;BME280;22478;51.740;-1.314;2023-04-10T07:12:28;99609.30;;;4.20;100.00
36454;BME280;22478;51.740;-1.314;2023-04-10T07:14:55;99605.22;;;5.16;100.00
36454;BME280;22478;51.740;-1.314;2023-04-10T07:17:23;99607.09;;;4.85;100.00
36454;BME280;22478;51.740;-1.314;2023-04-10T07:19:51;99596.84;;;5.74;100.00
36454;BME280;22478;51.740;-1.314;2023-04-10T07:22:17;99593.12;;;4.98;100.00
36454;BME280;22478;51.740;-1.314;2023-04-10T07:24:45;99588.02;;;6.10;100.00
36454;BME280;22478;51.740;-1.314;2023-04-10T07:27:12;99586.87;;;6.50;100.00
36454;BME280;22478;51.740;-1.314;2023-04-10T07:29:39;99586.13;;;6.76;100.00
36454;BME280;22478;51.740;-1.314;2023-04-10T07:32:07;99584.27;;;6.98;100.00
36454;BME280;22478;51.740;-1.314;2023-04-10T07:34:34;99579.27;;;5.58;100.00
36454;BME280;22478;51.740;-1.314;2023-04-10T07:37:01;99572.26;;;6.60;100.00
36454;BME280;22478;51.740;-1.314;2023-04-10T07:39:28;99566.82;;;6.06;100.00
36454;BME280;22478;51.740;-1.314;2023-04-10T07:41:55;99551.04;;;7.24;100.00
36454;BME280;22478;51.740;-1.314;2023-04-10T07:44:25;99553.71;;;6.88;100.00
36454;BME280;22478;51.740;-1.314;2023-04-10T07:46:52;99551.14;;;6.40;100.00
36454;BME280;22478;51.740;-1.314;2023-04-10T07:49:19;99552.03;;;5.12;100.00
36454;BME280;22478;51.740;-1.314;2023-04-10T07:51:47;99541.77;;;5.44;100.00
36454;BME280;22478;51.740;-1.314;2023-04-10T07:54:14;99539.36;;;5.66;100.00
36454;BME280;22478;51.740;-1.314;2023-04-10T07:56:41;99542.59;;;5.67;100.00
36454;BME280;22478;51.740;-1.314;2023-04-10T07:59:10;99531.96;;;5.77;100.00
36454;BME280;22478;51.740;-1.314;2023-04-10T08:01:37;99515.29;;;6.66;100.00
36454;BME280;22478;51.740;-1.314;2023-04-10T08:04:04;99512.01;;;5.95;100.00
36454;BME280;22478;51.740;-1.314;2023-04-10T08:06:32;99512.76;;;6.45;100.00
36454;BME280;22478;51.740;-1.314;2023-04-10T08:08:59;99517.16;;;6.24;100.00
36454;BME280;22478;51.740;-1.314;2023-04-10T08:11:28;99517.61;;;6.41;100.00
36454;BME280;22478;51.740;-1.314;2023-04-10T08:13:57;99511.01;;;5.76;100.00
36454;BME280;22478;51.740;-1.314;2023-04-10T08:16:26;99508.72;;;5.82;100.00
36454;BME280;22478;51.740;-1.314;2023-04-10T08:18:55;99511.34;;;4.15;100.00
36454;BME280;22478;51.740;-1.314;2023-04-10T08:21:24;99506.58;;;5.90;100.00
36454;BME280;22478;51.740;-1.314;2023-04-10T08:23:53;99499.51;;;5.94;100.00
36454;BME280;22478;51.740;-1.314;2023-04-10T08:26:20;99496.96;;;6.20;100.00
36454;BME280;22478;51.740;-1.314;2023-04-10T08:28:48;99487.70;;;6.22;100.00
36454;BME280;22478;51.740;-1.314;2023-04-10T08:31:17;99487.69;;;7.07;100.00
36454;BME280;22478;51.740;-1.314;2023-04-10T08:33:45;99486.64;;;5.83;100.00
36454;BME280;22478;51.740;-1.314;2023-04-10T08:36:14;99486.43;;;7.12;100.00
36454;BME280;22478;51.740;-1.314;2023-04-10T08:38:41;99486.09;;;6.82;100.00
36454;BME280;22478;51.740;-1.314;2023-04-10T08:41:10;99494.17;;;5.72;100.00
36454;BME280;22478;51.740;-1.314;2023-04-10T08:43:37;99486.89;;;6.42;100.00
36454;BME280;22478;51.740;-1.314;2023-04-10T08:46:05;99498.51;;;4.63;100.00
36454;BME280;22478;51.740;-1.314;2023-04-10T08:48:37;99493.40;;;5.13;100.00
36454;BME280;22478;51.740;-1.314;2023-04-10T08:51:06;99491.35;;;4.74;100.00
36454;BME280;22478;51.740;-1.314;2023-04-10T08:53:40;99487.02;;;5.79;100.00
36454;BME280;22478;51.740;-1.314;2023-04-10T08:56:11;99486.45;;;6.04;100.00
36454;BME280;22478;51.740;-1.314;2023-04-10T08:58:39;99489.83;;;6.19;100.00
36454;BME280;22478;51.740;-1.314;2023-04-10T09:01:08;99477.70;;;6.02;100.00
36454;BME280;22478;51.740;-1.314;2023-04-10T09:03:36;99486.80;;;5.87;100.00
36454;BME280;22478;51.740;-1.314;2023-04-10T09:06:04;99481.80;;;6.71;100.00
36454;BME280;22478;51.740;-1.314;2023-04-10T09:08:33;99479.49;;;6.80;100.00
36454;BME280;22478;51.740;-1.314;2023-04-10T09:11:00;99479.62;;;6.80;100.00
36454;BME280;22478;51.740;-1.314;2023-04-10T09:13:35;99474.71;;;7.75;100.00
36454;BME280;22478;51.740;-1.314;2023-04-10T09:16:03;99475.71;;;6.65;100.00
36454;BME280;22478;51.740;-1.314;2023-04-10T09:18:47;99478.52;;;4.84;100.00
36454;BME280;22478;51.740;-1.314;2023-04-10T09:21:16;99481.77;;;5.48;100.00
36454;BME280;22478;51.740;-1.314;2023-04-10T09:23:46;99466.64;;;6.62;100.00
36454;BME280;22478;51.740;-1.314;2023-04-10T09:26:23;99472.96;;;5.79;100.00
36454;BME280;22478;51.740;-1.314;2023-04-10T09:28:59;99467.96;;;6.18;100.00
36454;BME280;22478;51.740;-1.314;2023-04-10T09:31:32;99469.52;;;6.50;100.00
36454;BME280;22478;51.740;-1.314;2023-04-10T09:34:10;99496.56;;;4.86;100.00
36454;BME280;22478;51.740;-1.314;2023-04-10T09:36:38;99503.64;;;4.07;100.00
36454;BME280;22478;51.740;-1.314;2023-04-10T09:39:05;99503.89;;;5.23;100.00
36454;BME280;22478;51.740;-1.314;2023-04-10T09:41:33;99494.25;;;4.59;100.00
36454;BME280;22478;51.740;-1.314;2023-04-10T09:44:09;99499.34;;;3.52;100.00
36454;BME280;22478;51.740;-1.314;2023-04-10T09:46:37;99504.89;;;3.59;100.00
36454;BME280;22478;51.740;-1.314;2023-04-10T09:49:04;99509.36;;;2.52;100.00
36454;BME280;22478;51.740;-1.314;2023-04-10T09:51:33;99503.94;;;4.93;100.00
36454;BME280;22478;51.740;-1.314;2023-04-10T09:54:01;99494.38;;;4.01;100.00
36454;BME280;22478;51.740;-1.314;2023-04-10T09:56:29;99485.16;;;4.59;100.00
36454;BME280;22478;51.740;-1.314;2023-04-10T09:58:59;99473.86;;;5.92;100.00
36454;BME280;22478;51.740;-1.314;2023-04-10T10:01:27;99467.10;;;7.93;100.00
36454;BME280;22478;51.740;-1.314;2023-04-10T10:03:55;99466.50;;;7.96;100.00
36454;BME280;22478;51.740;-1.314;2023-04-10T10:06:25;99452.80;;;9.03;100.00
36454;BME280;22478;51.740;-1.314;2023-04-10T10:08:52;99450.04;;;7.45;100.00
36454;BME280;22478;51.740;-1.314;2023-04-10T10:11:22;99442.37;;;5.84;100.00
36454;BME280;22478;51.740;-1.314;2023-04-10T10:13:51;99439.60;;;6.26;100.00
36454;BME280;22478;51.740;-1.314;2023-04-10T10:16:20;99455.54;;;4.79;100.00
36454;BME280;22478;51.740;-1.314;2023-04-10T10:18:54;99443.59;;;6.30;100.00
36454;BME280;22478;51.740;-1.314;2023-04-10T10:21:27;99456.11;;;5.74;100.00
36454;BME280;22478;51.740;-1.314;2023-04-10T10:23:58;99438.63;;;5.38;100.00
36454;BME280;22478;51.740;-1.314;2023-04-10T10:26:26;99433.14;;;5.30;100.00
36454;BME280;22478;51.740;-1.314;2023-04-10T10:28:55;99420.13;;;5.92;100.00
36454;BME280;22478;51.740;-1.314;2023-04-10T10:31:24;99406.24;;;5.25;100.00
36454;BME280;22478;51.740;-1.314;2023-04-10T10:33:54;99405.01;;;7.06;100.00
36454;BME280;22478;51.740;-1.314;2023-04-10T10:36:21;99409.96;;;6.40;100.00
36454;BME280;22478;51.740;-1.314;2023-04-10T10:38:56;99406.74;;;6.80;100.00
36454;BME280;22478;51.740;-1.314;2023-04-10T10:41:31;99412.25;;;4.87;100.00
36454;BME280;22478;51.740;-1.314;2023-04-10T10:44:10;99415.08;;;4.98;100.00
36454;BME280;22478;51.740;-1.314;2023-04-10T10:46:42;99415.73;;;6.45;100.00
36454;BME280;22478;51.740;-1.314;2023-04-10T10:49:10;99399.17;;;8.30;100.00
36454;BME280;22478;51.740;-1.314;2023-04-10T10:51:47;99415.31;;;6.92;100.00
36454;BME280;22478;51.740;-1.314;2023-04-10T10:54:31;99410.51;;;8.24;100.00
36454;BME280;22478;51.740;-1.314;2023-04-10T10:56:58;99407.94;;;8.08;100.00
36454;BME280;22478;51.740;-1.314;2023-04-10T10:59:58;99393.29;;;8.79;100.00
36454;BME280;22478;51.740;-1.314;2023-04-10T11:02:25;99396.02;;;8.22;100.00
36454;BME280;22478;51.740;-1.314;2023-04-10T11:04:53;99402.02;;;8.54;100.00
36454;BME280;22478;51.740;-1.314;2023-04-10T11:07:20;99393.23;;;8.94;100.00
36454;BME280;22478;51.740;-1.314;2023-04-10T11:09:49;99384.20;;;10.03;100.00
36454;BME280;22478;51.740;-1.314;2023-04-10T11:12:20;99383.98;;;10.30;100.00
36454;BME280;22478;51.740;-1.314;2023-04-10T11:14:57;99379.77;;;7.08;100.00
36454;BME280;22478;51.740;-1.314;2023-04-10T11:17:56;99376.59;;;7.71;100.00
36454;BME280;22478;51.740;-1.314;2023-04-10T11:20:24;99381.66;;;8.98;100.00
36454;BME280;22478;51.740;-1.314;2023-04-10T11:23:09;99384.01;;;7.81;100.00
36454;BME280;22478;51.740;-1.314;2023-04-10T11:25:53;99376.77;;;11.43;100.00
36454;BME280;22478;51.740;-1.314;2023-04-10T11:28:36;99368.48;;;13.47;100.00
36454;BME280;22478;51.740;-1.314;2023-04-10T11:31:21;99378.67;;;11.06;100.00
36454;BME280;22478;51.740;-1.314;2023-04-10T11:33:59;99379.42;;;10.83;100.00
36454;BME280;22478;51.740;-1.314;2023-04-10T11:36:27;99385.71;;;9.18;100.00
36454;BME280;22478;51.740;-1.314;2023-04-10T11:38:56;99386.33;;;8.58;100.00
36454;BME280;22478;51.740;-1.314;2023-04-10T11:41:27;99374.94;;;9.14;100.00
36454;BME280;22478;51.740;-1.314;2023-04-10T11:43:55;99369.45;;;8.66;100.00
36454;BME280;22478;51.740;-1.314;2023-04-10T11:46:23;99368.08;;;7.46;100.00
36454;BME280;22478;51.740;-1.314;2023-04-10T11:48:52;99363.48;;;6.87;100.00
36454;BME280;22478;51.740;-1.314;2023-04-10T11:51:19;99392.11;;;6.66;100.00
36454;BME280;22478;51.740;-1.314;2023-04-10T11:53:47;99387.32;;;6.27;100.00
36454;BME280;22478;51.740;-1.314;2023-04-10T11:56:16;99389.69;;;6.41;100.00
36454;BME280;22478;51.740;-1.314;2023-04-10T11:58:43;99378.93;;;8.30;100.00
36454;BME280;22478;51.740;-1.314;2023-04-10T12:01:10;99369.82;;;5.71;100.00
36454;BME280;22478;51.740;-1.314;2023-04-10T12:03:39;99372.94;;;6.69;100.00
36454;BME280;22478;51.740;-1.314;2023-04-10T12:06:09;99369.22;;;7.81;100.00
36454;BME280;22478;51.740;-1.314;2023-04-10T12:08:38;99350.50;;;9.00;100.00
36454;BME280;22478;51.740;-1.314;2023-04-10T12:11:06;99343.74;;;12.27;100.00
36454;BME280;22478;51.740;-1.314;2023-04-10T12:13:33;99335.13;;;9.74;100.00
36454;BME280;22478;51.740;-1.314;2023-04-10T12:16:02;99333.24;;;12.73;100.00
36454;BME280;22478;51.740;-1.314;2023-04-10T12:18:29;99331.56;;;11.46;100.00
36454;BME280;22478;51.740;-1.314;2023-04-10T12:20:58;99330.84;;;11.13;100.00
36454;BME280;22478;51.740;-1.314;2023-04-10T12:23:26;99342.16;;;10.82;100.00
36454;BME280;22478;51.740;-1.314;2023-04-10T12:26:07;99342.09;;;10.89;100.00
36454;BME280;22478;51.740;-1.314;2023-04-10T12:28:36;99338.27;;;12.68;94.51
36454;BME280;22478;51.740;-1.314;2023-04-10T12:31:04;99334.64;;;11.49;98.09
36454;BME280;22478;51.740;-1.314;2023-04-10T12:33:31;99348.22;;;11.06;99.26
36454;BME280;22478;51.740;-1.314;2023-04-10T12:35:59;99339.23;;;12.26;77.28
36454;BME280;22478;51.740;-1.314;2023-04-10T12:38:35;99351.45;;;10.54;100.00
36454;BME280;22478;51.740;-1.314;2023-04-10T12:41:04;99342.60;;;11.93;84.31
36454;BME280;22478;51.740;-1.314;2023-04-10T12:43:32;99342.15;;;12.63;93.31
36454;BME280;22478;51.740;-1.314;2023-04-10T12:46:00;99351.14;;;10.98;100.00
36454;BME280;22478;51.740;-1.314;2023-04-10T12:48:27;99370.86;;;7.08;100.00
36454;BME280;22478;51.740;-1.314;2023-04-10T12:50:55;99367.73;;;9.85;100.00
36454;BME280;22478;51.740;-1.314;2023-04-10T12:53:23;99354.98;;;9.55;100.00
36454;BME280;22478;51.740;-1.314;2023-04-10T12:56:00;99366.13;;;8.93;100.00
36454;BME280;22478;51.740;-1.314;2023-04-10T12:58:29;99359.55;;;8.33;97.79